sensor_id;sensor_type;location;lat;lon;timestamp;pressure;altitude;pressure_sealevel;temperature;humidity
50394;BME280;36308;46.312;25.288;2022-09-03T00:02:17;96162.81;;;14.00;75.87
50394;BME280;36308;46.312;25.288;2022-09-03T00:04:58;96166.59;;;14.04;75.80
50394;BME280;36308;46.312;25.288;2022-09-03T00:10:08;96165.22;;;14.07;75.86
50394;BME280;36308;46.312;25.288;2022-09-03T00:12:39;96169.28;;;14.04;75.33
50394;BME280;36308;46.312;25.288;2022-09-03T00:15:10;96180.09;;;14.09;76.00
50394;BME280;36308;46.312;25.288;2022-09-03T00:17:56;96180.09;;;14.09;75.91
50394;BME280;36308;46.312;25.288;2022-09-03T00:20:33;96174.69;;;14.09;75.71
50394;BME280;36308;46.312;25.288;2022-09-03T00:23:04;96170.41;;;14.03;75.56
50394;BME280;36308;46.312;25.288;2022-09-03T00:25:43;96182.81;;;14.09;75.61
50394;BME280;36308;46.312;25.288;2022-09-03T00:28:16;96176.31;;;14.10;75.94
50394;BME280;36308;46.312;25.288;2022-09-03T00:30:46;96169.81;;;14.06;75.77
50394;BME280;36308;46.312;25.288;2022-09-03T00:33:21;96163.34;;;14.02;75.90
50394;BME280;36308;46.312;25.288;2022-09-03T00:35:52;96174.16;;;14.07;75.64
50394;BME280;36308;46.312;25.288;2022-09-03T00:38:19;96173.88;;;14.09;75.91
50394;BME280;36308;46.312;25.288;2022-09-03T00:43:55;96169.28;;;14.09;75.76
50394;BME280;36308;46.312;25.288;2022-09-03T01:00:06;96164.41;;;14.11;75.98
50394;BME280;36308;46.312;25.288;2022-09-03T01:08:18;96157.91;;;14.12;76.01
50394;BME280;36308;46.312;25.288;2022-09-03T01:11:01;96163.84;;;14.14;76.23
50394;BME280;36308;46.312;25.288;2022-09-03T01:13:31;96162.78;;;14.15;76.29
50394;BME280;36308;46.312;25.288;2022-09-03T01:16:27;96155.75;;;14.14;76.02
50394;BME280;36308;46.312;25.288;2022-09-03T01:27:31;96171.41;;;14.18;76.36
50394;BME280;36308;46.312;25.288;2022-09-03T01:35:22;96166.00;;;14.18;76.33
50394;BME280;36308;46.312;25.288;2022-09-03T01:38:02;96163.00;;;14.19;76.48
50394;BME280;36308;46.312;25.288;2022-09-03T01:40:57;96153.03;;;14.20;76.25
50394;BME280;36308;46.312;25.288;2022-09-03T01:46:41;96154.09;;;14.19;76.68
50394;BME280;36308;46.312;25.288;2022-09-03T01:51:51;96147.63;;;14.20;76.11
50394;BME280;36308;46.312;25.288;2022-09-03T01:54:29;96160.03;;;14.21;76.15
50394;BME280;36308;46.312;25.288;2022-09-03T01:59:59;96153.03;;;14.20;76.08
50394;BME280;36308;46.312;25.288;2022-09-03T02:02:27;96153.81;;;14.20;76.05
50394;BME280;36308;46.312;25.288;2022-09-03T02:05:03;96147.63;;;14.20;76.09
50394;BME280;36308;46.312;25.288;2022-09-03T02:07:35;96134.09;;;14.14;75.91
50394;BME280;36308;46.312;25.288;2022-09-03T02:10:02;96146.78;;;14.19;76.37
50394;BME280;36308;46.312;25.288;2022-09-03T02:12:32;96138.16;;;14.17;76.20
50394;BME280;36308;46.312;25.288;2022-09-03T02:15:09;96139.25;;;14.16;76.02
50394;BME280;36308;46.312;25.288;2022-09-03T02:17:36;96141.69;;;14.18;76.17
50394;BME280;36308;46.312;25.288;2022-09-03T02:20:07;96154.63;;;14.21;76.32
50394;BME280;36308;46.312;25.288;2022-09-03T02:22:36;96148.72;;;14.13;76.07
50394;BME280;36308;46.312;25.288;2022-09-03T02:25:03;96159.22;;;14.20;76.14
50394;BME280;36308;46.312;25.288;2022-09-03T02:27:29;96157.34;;;14.21;75.83
50394;BME280;36308;46.312;25.288;2022-09-03T02:29:56;96150.31;;;14.14;75.94
50394;BME280;36308;46.312;25.288;2022-09-03T02:32:23;96141.94;;;14.11;76.00
50394;BME280;36308;46.312;25.288;2022-09-03T02:34:48;96160.34;;;14.14;76.02
50394;BME280;36308;46.312;25.288;2022-09-03T02:37:15;96158.97;;;14.17;75.95
50394;BME280;36308;46.312;25.288;2022-09-03T02:39:41;96143.59;;;14.07;76.00
50394;BME280;36308;46.312;25.288;2022-09-03T02:42:09;96157.38;;;14.15;76.16
50394;BME280;36308;46.312;25.288;2022-09-03T02:44:57;96156.84;;;14.13;76.14
50394;BME280;36308;46.312;25.288;2022-09-03T02:47:30;96149.25;;;14.10;76.22
50394;BME280;36308;46.312;25.288;2022-09-03T02:49:56;96156.00;;;14.13;76.24
50394;BME280;36308;46.312;25.288;2022-09-03T02:52:21;96142.78;;;14.06;76.09
50394;BME280;36308;46.312;25.288;2022-09-03T02:54:47;96163.31;;;14.12;76.03
50394;BME280;36308;46.312;25.288;2022-09-03T02:57:14;96155.47;;;14.11;76.31
50394;BME280;36308;46.312;25.288;2022-09-03T02:59:40;96157.13;;;14.07;76.08
50394;BME280;36308;46.312;25.288;2022-09-03T03:02:08;96164.69;;;14.10;76.21
50394;BME280;36308;46.312;25.288;2022-09-03T03:04:34;96165.00;;;14.03;76.52
50394;BME280;36308;46.312;25.288;2022-09-03T03:06:59;96187.13;;;14.10;76.22
50394;BME280;36308;46.312;25.288;2022-09-03T03:09:25;96169.56;;;14.03;76.67
50394;BME280;36308;46.312;25.288;2022-09-03T03:11:50;96165.00;;;13.98;76.30
50394;BME280;36308;46.312;25.288;2022-09-03T03:14:27;96183.59;;;14.10;76.30
50394;BME280;36308;46.312;25.288;2022-09-03T03:16:52;96173.06;;;14.08;76.06
50394;BME280;36308;46.312;25.288;2022-09-03T03:19:18;96168.50;;;14.04;76.04
50394;BME280;36308;46.312;25.288;2022-09-03T03:21:43;96175.22;;;14.06;76.43
50394;BME280;36308;46.312;25.288;2022-09-03T03:24:09;96169.81;;;14.06;76.08
50394;BME280;36308;46.312;25.288;2022-09-03T03:26:35;96171.72;;;14.06;76.58
50394;BME280;36308;46.312;25.288;2022-09-03T03:29:02;96173.63;;;14.05;76.50
50394;BME280;36308;46.312;25.288;2022-09-03T03:31:31;96156.66;;;13.94;76.28
50394;BME280;36308;46.312;25.288;2022-09-03T03:34:01;96168.22;;;14.05;76.63
50394;BME280;36308;46.312;25.288;2022-09-03T03:36:29;96170.41;;;14.03;76.53
50394;BME280;36308;46.312;25.288;2022-09-03T03:38:56;96176.59;;;14.04;76.62
50394;BME280;36308;46.312;25.288;2022-09-03T03:41:25;96172.56;;;14.01;76.20
50394;BME280;36308;46.312;25.288;2022-09-03T03:43:55;96170.94;;;14.00;76.54
50394;BME280;36308;46.312;25.288;2022-09-03T03:49:43;96183.91;;;13.98;76.44
50394;BME280;36308;46.312;25.288;2022-09-03T03:52:09;96168.81;;;13.87;76.29
50394;BME280;36308;46.312;25.288;2022-09-03T03:54:34;96184.47;;;13.95;76.58
50394;BME280;36308;46.312;25.288;2022-09-03T03:57:07;96161.53;;;13.87;76.75
50394;BME280;36308;46.312;25.288;2022-09-03T03:59:32;96174.50;;;13.90;76.19
50394;BME280;36308;46.312;25.288;2022-09-03T04:01:58;96174.50;;;13.90;76.75
50394;BME280;36308;46.312;25.288;2022-09-03T04:04:23;96178.00;;;13.91;76.63
50394;BME280;36308;46.312;25.288;2022-09-03T04:06:48;96174.22;;;13.87;76.83
50394;BME280;36308;46.312;25.288;2022-09-03T04:09:14;96174.75;;;13.89;76.91
50394;BME280;36308;46.312;25.288;2022-09-03T04:11:39;96176.94;;;13.87;76.48
50394;BME280;36308;46.312;25.288;2022-09-03T04:14:05;96179.09;;;13.85;76.71
50394;BME280;36308;46.312;25.288;2022-09-03T04:16:30;96173.16;;;13.78;76.57
50394;BME280;36308;46.312;25.288;2022-09-03T04:18:57;96173.72;;;13.74;77.02
50394;BME280;36308;46.312;25.288;2022-09-03T04:21:25;96181.25;;;13.78;77.08
50394;BME280;36308;46.312;25.288;2022-09-03T04:23:51;96186.66;;;13.83;76.87
50394;BME280;36308;46.312;25.288;2022-09-03T04:26:23;96185.03;;;13.82;77.01
50394;BME280;36308;46.312;25.288;2022-09-03T04:28:55;96186.13;;;13.81;77.00
50394;BME280;36308;46.312;25.288;2022-09-03T04:31:20;96185.03;;;13.82;77.13
50394;BME280;36308;46.312;25.288;2022-09-03T04:33:46;96182.88;;;13.84;76.94
50394;BME280;36308;46.312;25.288;2022-09-03T04:36:20;96188.03;;;13.80;77.21
50394;BME280;36308;46.312;25.288;2022-09-03T04:38:48;96188.84;;;13.81;77.27
50394;BME280;36308;46.312;25.288;2022-09-03T04:41:18;96172.09;;;13.73;77.16
50394;BME280;36308;46.312;25.288;2022-09-03T04:43:45;96182.34;;;13.71;77.46
50394;BME280;36308;46.312;25.288;2022-09-03T04:46:13;96190.19;;;13.78;77.54
50394;BME280;36308;46.312;25.288;2022-09-03T04:48:39;96191.00;;;13.79;77.53
50394;BME280;36308;46.312;25.288;2022-09-03T04:51:10;96197.22;;;13.79;77.48
50394;BME280;36308;46.312;25.288;2022-09-03T04:53:43;96203.41;;;13.80;77.37
50394;BME280;36308;46.312;25.288;2022-09-03T04:56:20;96196.41;;;13.79;77.48
50394;BME280;36308;46.312;25.288;2022-09-03T04:58:47;96184.00;;;13.67;77.31
50394;BME280;36308;46.312;25.288;2022-09-03T05:01:21;96201.81;;;13.79;77.89
50394;BME280;36308;46.312;25.288;2022-09-03T05:03:48;96185.63;;;13.68;77.09
50394;BME280;36308;46.312;25.288;2022-09-03T05:06:15;96190.22;;;13.68;77.38
50394;BME280;36308;46.312;25.288;2022-09-03T05:08:41;96206.41;;;13.78;77.51
50394;BME280;36308;46.312;25.288;2022-09-03T05:11:10;96204.78;;;13.77;77.58
50394;BME280;36308;46.312;25.288;2022-09-03T05:13:35;96201.81;;;13.79;77.64
50394;BME280;36308;46.312;25.288;2022-09-03T05:16:03;96208.81;;;13.80;77.65
50394;BME280;36308;46.312;25.288;2022-09-03T05:18:30;96200.19;;;13.78;77.71
50394;BME280;36308;46.312;25.288;2022-09-03T05:21:02;96211.00;;;13.83;77.64
50394;BME280;36308;46.312;25.288;2022-09-03T05:23:28;96196.94;;;13.75;77.96
50394;BME280;36308;46.312;25.288;2022-09-03T05:26:02;96205.59;;;13.83;77.67
50394;BME280;36308;46.312;25.288;2022-09-03T05:28:30;96204.50;;;13.84;77.49
50394;BME280;36308;46.312;25.288;2022-09-03T05:31:03;96205.31;;;13.84;77.33
50394;BME280;36308;46.312;25.288;2022-09-03T05:33:33;96206.94;;;13.85;77.67
50394;BME280;36308;46.312;25.288;2022-09-03T05:36:07;96193.16;;;13.77;77.88
50394;BME280;36308;46.312;25.288;2022-09-03T05:38:33;96208.81;;;13.90;78.05
50394;BME280;36308;46.312;25.288;2022-09-03T05:41:00;96212.88;;;13.92;77.94
50394;BME280;36308;46.312;25.288;2022-09-03T05:43:34;96215.28;;;13.94;77.95
50394;BME280;36308;46.312;25.288;2022-09-03T05:46:05;96219.63;;;13.95;77.95
50394;BME280;36308;46.312;25.288;2022-09-03T05:48:32;96213.66;;;13.98;77.89
50394;BME280;36308;46.312;25.288;2022-09-03T05:53:31;96210.69;;;13.94;78.10
50394;BME280;36308;46.312;25.288;2022-09-03T05:55:59;96220.66;;;14.04;77.63
50394;BME280;36308;46.312;25.288;2022-09-03T05:58:33;96210.69;;;14.00;77.67
50394;BME280;36308;46.312;25.288;2022-09-03T06:00:59;96211.78;;;13.99;77.90
50394;BME280;36308;46.312;25.288;2022-09-03T06:03:33;96227.66;;;14.10;77.78
50394;BME280;36308;46.312;25.288;2022-09-03T06:05:59;96233.59;;;14.12;77.59
50394;BME280;36308;46.312;25.288;2022-09-03T06:08:24;96223.59;;;14.13;77.55
50394;BME280;36308;46.312;25.288;2022-09-03T06:10:57;96233.06;;;14.15;77.55
50394;BME280;36308;46.312;25.288;2022-09-03T06:13:22;96243.31;;;14.19;77.59
50394;BME280;36308;46.312;25.288;2022-09-03T06:15:48;96235.78;;;14.15;77.67
50394;BME280;36308;46.312;25.288;2022-09-03T06:18:13;96231.97;;;14.17;77.96
50394;BME280;36308;46.312;25.288;2022-09-03T06:20:39;96237.13;;;14.18;77.96
50394;BME280;36308;46.312;25.288;2022-09-03T06:23:04;96237.91;;;14.19;78.03
50394;BME280;36308;46.312;25.288;2022-09-03T06:25:29;96252.22;;;14.29;77.51
50394;BME280;36308;46.312;25.288;2022-09-03T06:27:56;96252.75;;;14.31;77.56
50394;BME280;36308;46.312;25.288;2022-09-03T06:30:22;96245.47;;;14.27;77.66
50394;BME280;36308;46.312;25.288;2022-09-03T06:32:49;96250.88;;;14.32;77.71
50394;BME280;36308;46.312;25.288;2022-09-03T06:35:14;96254.66;;;14.36;77.86
50394;BME280;36308;46.312;25.288;2022-09-03T06:37:41;96259.22;;;14.41;77.51
50394;BME280;36308;46.312;25.288;2022-09-03T06:40:08;96259.75;;;14.43;77.54
50394;BME280;36308;46.312;25.288;2022-09-03T06:42:38;96251.38;;;14.39;77.76
50394;BME280;36308;46.312;25.288;2022-09-03T06:45:04;96256.75;;;14.44;77.54
50394;BME280;36308;46.312;25.288;2022-09-03T06:50:54;96270.53;;;14.53;77.50
50394;BME280;36308;46.312;25.288;2022-09-03T06:53:22;96261.88;;;14.51;77.50
50394;BME280;36308;46.312;25.288;2022-09-03T06:55:58;96265.38;;;14.57;77.29
50394;BME280;36308;46.312;25.288;2022-09-03T06:58:27;96268.63;;;14.59;77.12
50394;BME280;36308;46.312;25.288;2022-09-03T07:04:11;96254.56;;;14.57;77.32
50394;BME280;36308;46.312;25.288;2022-09-03T07:06:38;96269.41;;;14.64;77.12
50394;BME280;36308;46.312;25.288;2022-09-03T07:09:19;96264.81;;;14.54;77.11
50394;BME280;36308;46.312;25.288;2022-09-03T07:11:45;96279.97;;;14.66;76.84
50394;BME280;36308;46.312;25.288;2022-09-03T07:14:13;96286.19;;;14.66;77.08
50394;BME280;36308;46.312;25.288;2022-09-03T07:16:39;96288.09;;;14.66;76.81
50394;BME280;36308;46.312;25.288;2022-09-03T07:19:06;96297.00;;;14.66;76.82
50394;BME280;36308;46.312;25.288;2022-09-03T07:21:34;96290.53;;;14.67;76.79
50394;BME280;36308;46.312;25.288;2022-09-03T07:24:06;96291.06;;;14.69;77.04
50394;BME280;36308;46.312;25.288;2022-09-03T07:26:37;96302.69;;;14.70;76.62
50394;BME280;36308;46.312;25.288;2022-09-03T07:29:04;96304.28;;;14.71;76.52
50394;BME280;36308;46.312;25.288;2022-09-03T07:31:34;96292.41;;;14.67;76.59
50394;BME280;36308;46.312;25.288;2022-09-03T07:34:03;96307.00;;;14.76;77.28
50394;BME280;36308;46.312;25.288;2022-09-03T07:36:34;96298.59;;;14.78;76.89
50394;BME280;36308;46.312;25.288;2022-09-03T07:38:59;96302.66;;;14.80;76.95
50394;BME280;36308;46.312;25.288;2022-09-03T07:41:26;96296.69;;;14.78;76.77
50394;BME280;36308;46.312;25.288;2022-09-03T07:43:52;96295.59;;;14.84;77.10
50394;BME280;36308;46.312;25.288;2022-09-03T07:46:23;96292.88;;;14.84;77.57
50394;BME280;36308;46.312;25.288;2022-09-03T07:51:24;96293.69;;;14.85;77.15
50394;BME280;36308;46.312;25.288;2022-09-03T07:53:52;96294.44;;;14.95;77.22
50394;BME280;36308;46.312;25.288;2022-09-03T07:56:18;96299.31;;;14.99;77.43
50394;BME280;36308;46.312;25.288;2022-09-03T07:58:44;96283.66;;;14.90;77.01
50394;BME280;36308;46.312;25.288;2022-09-03T08:01:13;96306.00;;;15.06;77.15
50394;BME280;36308;46.312;25.288;2022-09-03T08:03:43;96304.66;;;15.09;77.45
50394;BME280;36308;46.312;25.288;2022-09-03T08:06:09;96311.16;;;15.13;77.34
50394;BME280;36308;46.312;25.288;2022-09-03T08:08:35;96307.34;;;15.14;77.03
50394;BME280;36308;46.312;25.288;2022-09-03T08:11:06;96305.16;;;15.16;76.70
50394;BME280;36308;46.312;25.288;2022-09-03T08:13:34;96306.78;;;15.17;76.80
50394;BME280;36308;46.312;25.288;2022-09-03T08:15:59;96307.34;;;15.14;76.35
50394;BME280;36308;46.312;25.288;2022-09-03T08:18:26;96294.97;;;15.03;75.96
50394;BME280;36308;46.312;25.288;2022-09-03T08:20:59;96302.50;;;15.11;76.10
50394;BME280;36308;46.312;25.288;2022-09-03T08:23:24;96313.28;;;15.21;75.71
50394;BME280;36308;46.312;25.288;2022-09-03T08:26:00;96313.28;;;15.21;75.94
50394;BME280;36308;46.312;25.288;2022-09-03T08:28:26;96315.13;;;15.26;75.81
50394;BME280;36308;46.312;25.288;2022-09-03T08:30:52;96313.75;;;15.28;75.94
50394;BME280;36308;46.312;25.288;2022-09-03T08:33:18;96313.75;;;15.28;75.79
50394;BME280;36308;46.312;25.288;2022-09-03T08:36:22;96314.56;;;15.29;76.50
50394;BME280;36308;46.312;25.288;2022-09-03T08:38:49;96318.56;;;15.36;76.13
50394;BME280;36308;46.312;25.288;2022-09-03T08:44:29;96323.94;;;15.42;76.31
50394;BME280;36308;46.312;25.288;2022-09-03T08:50:03;96309.88;;;15.40;76.01
50394;BME280;36308;46.312;25.288;2022-09-03T08:52:39;96319.84;;;15.49;76.08
50394;BME280;36308;46.312;25.288;2022-09-03T08:55:27;96311.44;;;15.51;75.99
50394;BME280;36308;46.312;25.288;2022-09-03T08:58:05;96311.16;;;15.52;75.72
50394;BME280;36308;46.312;25.288;2022-09-03T09:00:45;96316.00;;;15.55;75.71
50394;BME280;36308;46.312;25.288;2022-09-03T09:17:38;96319.44;;;15.66;75.49
50394;BME280;36308;46.312;25.288;2022-09-03T09:23:14;96320.50;;;15.70;75.20
50394;BME280;36308;46.312;25.288;2022-09-03T09:25:48;96318.34;;;15.67;74.97
50394;BME280;36308;46.312;25.288;2022-09-03T09:28:25;96323.75;;;15.72;75.04
50394;BME280;36308;46.312;25.288;2022-09-03T09:30:56;96314.03;;;15.66;75.03
50394;BME280;36308;46.312;25.288;2022-09-03T09:33:22;96323.22;;;15.75;75.35
50394;BME280;36308;46.312;25.288;2022-09-03T09:35:48;96334.84;;;15.76;75.11
50394;BME280;36308;46.312;25.288;2022-09-03T09:38:14;96329.16;;;15.78;75.26
50394;BME280;36308;46.312;25.288;2022-09-03T09:40:46;96329.69;;;15.80;75.41
50394;BME280;36308;46.312;25.288;2022-09-03T09:43:17;96320.97;;;15.83;74.86
50394;BME280;36308;46.312;25.288;2022-09-03T09:45:47;96320.69;;;15.84;75.18
50394;BME280;36308;46.312;25.288;2022-09-03T09:48:20;96319.31;;;15.87;75.05
50394;BME280;36308;46.312;25.288;2022-09-03T09:50:46;96322.53;;;15.89;74.84
50394;BME280;36308;46.312;25.288;2022-09-03T09:53:12;96324.19;;;15.90;75.25
50394;BME280;36308;46.312;25.288;2022-09-03T09:55:56;96324.69;;;15.92;75.03
50394;BME280;36308;46.312;25.288;2022-09-03T09:58:27;96321.41;;;15.95;74.81
50394;BME280;36308;46.312;25.288;2022-09-03T10:03:35;96324.09;;;16.00;74.58
50394;BME280;36308;46.312;25.288;2022-09-03T10:06:06;96323.03;;;15.96;73.97
50394;BME280;36308;46.312;25.288;2022-09-03T10:09:03;96316.56;;;15.92;73.75
50394;BME280;36308;46.312;25.288;2022-09-03T10:11:29;96325.16;;;15.99;73.76
50394;BME280;36308;46.312;25.288;2022-09-03T10:13:55;96323.25;;;16.00;73.83
50394;BME280;36308;46.312;25.288;2022-09-03T10:16:27;96324.63;;;16.02;74.09
50394;BME280;36308;46.312;25.288;2022-09-03T10:21:42;96313.25;;;16.00;73.64
50394;BME280;36308;46.312;25.288;2022-09-03T10:26:42;96334.25;;;16.13;73.73
50394;BME280;36308;46.312;25.288;2022-09-03T10:29:11;96322.84;;;16.16;73.84
50394;BME280;36308;46.312;25.288;2022-09-03T10:31:58;96332.00;;;16.21;74.39
50394;BME280;36308;46.312;25.288;2022-09-03T10:37:28;96327.31;;;16.31;73.97
50394;BME280;36308;46.312;25.288;2022-09-03T10:46:09;96329.06;;;16.46;73.58
50394;BME280;36308;46.312;25.288;2022-09-03T10:51:26;96323.50;;;16.56;73.28
50394;BME280;36308;46.312;25.288;2022-09-03T10:56:35;96313.69;;;16.61;73.28
50394;BME280;36308;46.312;25.288;2022-09-03T10:59:41;96324.47;;;16.66;72.45
50394;BME280;36308;46.312;25.288;2022-09-03T11:02:42;96327.44;;;16.69;72.32
50394;BME280;36308;46.312;25.288;2022-09-03T11:08:19;96325.25;;;16.71;71.98
50394;BME280;36308;46.312;25.288;2022-09-03T11:10:51;96326.56;;;16.74;71.63
50394;BME280;36308;46.312;25.288;2022-09-03T11:13:32;96332.00;;;16.74;71.58
50394;BME280;36308;46.312;25.288;2022-09-03T11:16:16;96324.38;;;16.76;71.23
50394;BME280;36308;46.312;25.288;2022-09-03T11:18:49;96325.41;;;16.80;71.24
50394;BME280;36308;46.312;25.288;2022-09-03T11:21:21;96315.41;;;16.75;71.23
50394;BME280;36308;46.312;25.288;2022-09-03T11:24:20;96329.47;;;16.83;70.98
50394;BME280;36308;46.312;25.288;2022-09-03T11:26:52;96324.59;;;16.80;71.05
50394;BME280;36308;46.312;25.288;2022-09-03T11:29:56;96328.31;;;16.89;71.08
50394;BME280;36308;46.312;25.288;2022-09-03T11:32:49;96328.53;;;16.92;70.93
50394;BME280;36308;46.312;25.288;2022-09-03T11:38:00;96330.69;;;16.95;70.40
50394;BME280;36308;46.312;25.288;2022-09-03T11:40:34;96324.16;;;16.96;70.52
50394;BME280;36308;46.312;25.288;2022-09-03T11:43:12;96335.00;;;16.96;70.36
50394;BME280;36308;46.312;25.288;2022-09-03T11:45:39;96318.28;;;16.89;70.65
50394;BME280;36308;46.312;25.288;2022-09-03T11:48:27;96323.63;;;16.94;70.39
50394;BME280;36308;46.312;25.288;2022-09-03T11:50:57;96329.56;;;16.96;70.89
50394;BME280;36308;46.312;25.288;2022-09-03T11:53:24;96331.22;;;16.98;70.51
50394;BME280;36308;46.312;25.288;2022-09-03T11:55:59;96323.34;;;16.96;70.42
50394;BME280;36308;46.312;25.288;2022-09-03T11:58:34;96324.66;;;16.99;70.59
50394;BME280;36308;46.312;25.288;2022-09-03T12:01:03;96337.69;;;17.02;70.60
50394;BME280;36308;46.312;25.288;2022-09-03T12:09:23;96333.84;;;17.03;70.05
50394;BME280;36308;46.312;25.288;2022-09-03T12:12:13;96311.81;;;16.85;69.83
50394;BME280;36308;46.312;25.288;2022-09-03T12:15:07;96331.22;;;16.98;69.98
50394;BME280;36308;46.312;25.288;2022-09-03T12:17:51;96338.00;;;16.95;69.91
50394;BME280;36308;46.312;25.288;2022-09-03T12:20:38;96336.94;;;16.96;70.03
50394;BME280;36308;46.312;25.288;2022-09-03T12:23:03;96323.72;;;16.89;70.13
50394;BME280;36308;46.312;25.288;2022-09-03T12:25:29;96321.56;;;16.86;70.46
50394;BME280;36308;46.312;25.288;2022-09-03T12:27:55;96337.50;;;16.93;70.60
50394;BME280;36308;46.312;25.288;2022-09-03T12:30:22;96340.53;;;16.91;70.58
50394;BME280;36308;46.312;25.288;2022-09-03T12:32:49;96332.38;;;16.91;70.49
50394;BME280;36308;46.312;25.288;2022-09-03T12:35:21;96335.59;;;16.93;70.26
50394;BME280;36308;46.312;25.288;2022-09-03T12:37:47;96330.75;;;16.90;70.28
50394;BME280;36308;46.312;25.288;2022-09-03T12:40:23;96314.03;;;16.78;70.35
50394;BME280;36308;46.312;25.288;2022-09-03T12:42:51;96331.84;;;16.89;70.46
50394;BME280;36308;46.312;25.288;2022-09-03T12:45:25;96330.75;;;16.90;70.57
50394;BME280;36308;46.312;25.288;2022-09-03T12:47:51;96329.13;;;16.89;70.27
50394;BME280;36308;46.312;25.288;2022-09-03T12:50:22;96333.75;;;16.89;70.01
50394;BME280;36308;46.312;25.288;2022-09-03T12:52:52;96327.50;;;16.88;70.07
50394;BME280;36308;46.312;25.288;2022-09-03T13:10:24;96324.97;;;16.73;70.54
50394;BME280;36308;46.312;25.288;2022-09-03T13:12:50;96324.09;;;16.77;70.48
50394;BME280;36308;46.312;25.288;2022-09-03T13:15:21;96325.94;;;16.82;70.18
50394;BME280;36308;46.312;25.288;2022-09-03T13:23:18;96327.28;;;16.85;69.91
50394;BME280;36308;46.312;25.288;2022-09-03T13:28:55;96315.59;;;16.84;70.03
50394;BME280;36308;46.312;25.288;2022-09-03T13:31:34;96322.06;;;16.88;69.95
50394;BME280;36308;46.312;25.288;2022-09-03T13:34:16;96315.03;;;16.87;69.85
50394;BME280;36308;46.312;25.288;2022-09-03T13:39:27;96321.50;;;16.91;69.55
50394;BME280;36308;46.312;25.288;2022-09-03T13:42:02;96312.25;;;16.92;69.60
50394;BME280;36308;46.312;25.288;2022-09-03T13:46:00;96322.53;;;16.95;69.89
50394;BME280;36308;46.312;25.288;2022-09-03T13:47:56;96328.19;;;16.99;69.70
50394;BME280;36308;46.312;25.288;2022-09-03T13:51:54;96318.66;;;17.02;69.39
50394;BME280;36308;46.312;25.288;2022-09-03T13:53:56;96330.84;;;17.04;69.75
50394;BME280;36308;46.312;25.288;2022-09-03T13:59:08;96338.72;;;17.06;69.02
50394;BME280;36308;46.312;25.288;2022-09-03T14:02:22;96333.28;;;17.06;69.37
50394;BME280;36308;46.312;25.288;2022-09-03T14:05:05;96340.91;;;17.04;69.20
50394;BME280;36308;46.312;25.288;2022-09-03T14:10:44;96338.72;;;17.06;69.15
50394;BME280;36308;46.312;25.288;2022-09-03T14:13:23;96326.22;;;17.05;69.03
50394;BME280;36308;46.312;25.288;2022-09-03T14:21:17;96326.22;;;17.05;68.90
50394;BME280;36308;46.312;25.288;2022-09-03T14:26:35;96327.00;;;17.05;69.07
50394;BME280;36308;46.312;25.288;2022-09-03T14:37:27;96328.84;;;17.10;68.68
50394;BME280;36308;46.312;25.288;2022-09-03T14:40:10;96327.25;;;17.09;68.89
50394;BME280;36308;46.312;25.288;2022-09-03T14:56:23;96327.47;;;17.12;69.35
50394;BME280;36308;46.312;25.288;2022-09-03T14:59:01;96325.28;;;17.14;69.38
50394;BME280;36308;46.312;25.288;2022-09-03T15:01:35;96332.31;;;17.15;69.47
50394;BME280;36308;46.312;25.288;2022-09-03T15:12:00;96326.31;;;17.19;69.16
50394;BME280;36308;46.312;25.288;2022-09-03T15:20:25;96330.34;;;17.21;69.25
50394;BME280;36308;46.312;25.288;2022-09-03T15:23:10;96330.34;;;17.21;69.34
50394;BME280;36308;46.312;25.288;2022-09-03T15:37:20;96332.19;;;17.26;69.61
50394;BME280;36308;46.312;25.288;2022-09-03T15:39:57;96331.16;;;17.22;69.64
50394;BME280;36308;46.312;25.288;2022-09-03T15:42:26;96343.84;;;17.26;69.57
50394;BME280;36308;46.312;25.288;2022-09-03T15:44:55;96349.28;;;17.26;69.36
50394;BME280;36308;46.312;25.288;2022-09-03T15:50:00;96350.13;;;17.27;69.43
50394;BME280;36308;46.312;25.288;2022-09-03T15:57:56;96342.53;;;17.24;69.20
50394;BME280;36308;46.312;25.288;2022-09-03T16:03:11;96336.56;;;17.22;69.49
50394;BME280;36308;46.312;25.288;2022-09-03T16:05:44;96343.34;;;17.24;69.48
50394;BME280;36308;46.312;25.288;2022-09-03T16:08:20;96339.81;;;17.24;69.31
50394;BME280;36308;46.312;25.288;2022-09-03T16:11:12;96334.16;;;17.20;69.43
50394;BME280;36308;46.312;25.288;2022-09-03T16:16:55;96345.84;;;17.21;69.32
50394;BME280;36308;46.312;25.288;2022-09-03T16:19:40;96343.13;;;17.21;69.51
50394;BME280;36308;46.312;25.288;2022-09-03T16:22:29;96345.00;;;17.20;69.58
50394;BME280;36308;46.312;25.288;2022-09-03T16:25:01;96348.84;;;17.19;69.69
50394;BME280;36308;46.312;25.288;2022-09-03T16:40:54;96354.41;;;17.09;70.20
50394;BME280;36308;46.312;25.288;2022-09-03T16:43:52;96355.81;;;17.06;70.08
50394;BME280;36308;46.312;25.288;2022-09-03T16:46:39;96356.09;;;17.05;70.30
50394;BME280;36308;46.312;25.288;2022-09-03T16:49:40;96367.03;;;17.00;70.29
50394;BME280;36308;46.312;25.288;2022-09-03T16:58:20;96352.47;;;16.90;71.05
50394;BME280;36308;46.312;25.288;2022-09-03T17:06:33;96355.78;;;16.87;71.26
50394;BME280;36308;46.312;25.288;2022-09-03T17:19:59;96366.84;;;16.67;71.30
50394;BME280;36308;46.312;25.288;2022-09-03T17:23:03;96370.69;;;16.61;71.39
50394;BME280;36308;46.312;25.288;2022-09-03T17:25:39;96373.44;;;16.55;71.18
50394;BME280;36308;46.312;25.288;2022-09-03T17:30:54;96383.06;;;16.48;71.69
50394;BME280;36308;46.312;25.288;2022-09-03T17:36:14;96393.16;;;16.37;72.04
50394;BME280;36308;46.312;25.288;2022-09-03T17:41:52;96403.03;;;16.28;71.75
50394;BME280;36308;46.312;25.288;2022-09-03T17:49:58;96406.44;;;16.09;71.78